This is the latest recevied weather packets stored in our database for station/object KC4GS-13. If no packets are shown the sender has not sent any weather packets the latest 10 day(s).
| Time | Temp. | Humidity | Pressure | Rain* | Wind** | Luminosity | Snow |
|---|---|---|---|---|---|---|---|
| 1777751457 | 17.78° C | 81% | 1012.5 hPa | 0 mm | - | 551 W/m² | - |
| 1777751148 | 17.78° C | 82% | 1012.6 hPa | 0 mm | - | 386 W/m² | - |
| 1777750845 | 17.22° C | 83% | 1012.8 hPa | 0 mm | - | 278 W/m² | - |
| 1777750542 | 17.22° C | 83% | 1012.8 hPa | 0 mm | - | 358 W/m² | - |
| 1777750238 | 17.22° C | 83% | 1012.7 hPa | 0 mm | - | 262 W/m² | - |
| 1777749934 | 17.78° C | 82% | 1012.7 hPa | 0 mm | - | 106 W/m² | - |
| 1777749632 | 18.89° C | 79% | 1012.8 hPa | 0 mm | - | 148 W/m² | - |
| 1777749329 | 18.89° C | 79% | 1012.4 hPa | 0 mm | - | 283 W/m² | - |
| 1777749027 | 18.89° C | 80% | 1012.8 hPa | 0 mm | - | 354 W/m² | - |
| 1777748723 | 18.33° C | 83% | 1012.8 hPa | 0 mm | - | 416 W/m² | - |
| 1777748415 | 17.78° C | 88% | 1012.8 hPa | 0 mm | - | 328 W/m² | - |
| 1777748110 | 17.78° C | 92% | 1012.6 hPa | 0 mm | - | 242 W/m² | - |
| 1777747806 | 17.22° C | 94% | 1012.7 hPa | 0 mm | - | 772 W/m² | - |
| 1777747501 | 16.67° C | 95% | 1012.8 hPa | 0 mm | - | 255 W/m² | - |
| 1777747198 | 16.67° C | 96% | 1012.9 hPa | 0 mm | - | 281 W/m² | - |
| 1777746889 | 16.11° C | 96% | 1012.8 hPa | 0 mm | - | 224 W/m² | - |
| 1777746584 | 16.11° C | 97% | 1012.9 hPa | 0 mm | - | 157 W/m² | - |
| 1777746280 | 16.11° C | 97% | 1012.9 hPa | 0 mm | - | 722 W/m² | - |
| 1777745976 | 16.11° C | 97% | 1013 hPa | 0 mm | - | 188 W/m² | - |
| 1777745674 | 15.56° C | 98% | 1013 hPa | 0 mm | - | 884 W/m² | - |
| 1777745373 | 16.11° C | 98% | 1013.3 hPa | 0 mm | - | 218 W/m² | - |
| 1777745069 | 15.56° C | 98% | 1012.8 hPa | 0 mm | - | 310 W/m² | - |
| 1777744765 | 16.11° C | 98% | 1013.2 hPa | 0 mm | - | 450 W/m² | - |
| 1777744460 | 15.56° C | 98% | 1013.3 hPa | 0 mm | - | 399 W/m² | - |
| 1777744156 | 15.56° C | 98% | 1013.3 hPa | 0 mm | - | 316 W/m² | - |
* Rain latest hour (hover to see other rain measurements)
** Current wind speed in m/s (hover to see current wind gust speed)